createdAt,value
2019-03-13T00:01:43.527Z,45.13
2019-03-13T00:04:13.896Z,47.43
2019-03-13T00:06:44.273Z,50.20
2019-03-13T00:09:15.811Z,49.83
2019-03-13T00:11:46.308Z,47.17
2019-03-13T00:14:19.756Z,44.87
2019-03-13T00:16:50.170Z,45.80
2019-03-13T00:19:20.414Z,46.97
2019-03-13T00:21:51.613Z,36.00
2019-03-13T00:24:23.614Z,39.10
2019-03-13T00:26:54.008Z,37.63
2019-03-13T00:29:24.425Z,39.83
2019-03-13T00:31:55.824Z,40.03
2019-03-13T00:34:26.204Z,41.17
2019-03-13T00:36:56.594Z,40.30
2019-03-13T00:39:27.052Z,40.90
2019-03-13T00:41:57.466Z,46.20
2019-03-13T00:44:27.841Z,42.97
2019-03-13T00:46:58.230Z,40.03
2019-03-13T00:49:28.600Z,43.97
2019-03-13T00:51:59.408Z,40.53
2019-03-13T00:54:29.772Z,43.73
2019-03-13T00:57:00.148Z,36.03
2019-03-13T00:59:30.541Z,37.23
2019-03-13T01:02:13.730Z,36.20
2019-03-13T01:04:45.680Z,37.80
2019-03-13T01:07:17.579Z,47.63
2019-03-13T01:09:49.482Z,42.27
2019-03-13T01:12:21.233Z,31.63
2019-03-13T01:14:51.709Z,36.30
2019-03-13T01:17:23.754Z,36.17
2019-03-13T01:19:54.595Z,36.53
2019-03-13T01:22:25.857Z,36.13
2019-03-13T01:24:56.281Z,40.63
2019-03-13T01:27:26.691Z,41.60
2019-03-13T01:29:58.093Z,39.77
2019-03-13T01:32:46.590Z,41.47
2019-03-13T01:35:21.218Z,48.60
2019-03-13T01:37:51.524Z,42.07
2019-03-13T01:40:21.828Z,37.77
2019-03-13T01:42:52.202Z,43.50
2019-03-13T01:45:22.575Z,42.97
2019-03-13T01:47:53.015Z,39.70
2019-03-13T01:50:23.398Z,30.20
2019-03-13T01:52:53.795Z,29.57
2019-03-13T01:55:24.188Z,32.97
2019-03-13T01:57:54.643Z,32.07
2019-03-13T02:00:25.027Z,33.83
2019-03-13T02:02:55.399Z,38.20
2019-03-13T02:05:25.827Z,26.40
2019-03-13T02:07:56.247Z,32.43
2019-03-13T02:10:26.623Z,28.13
2019-03-13T02:12:57.029Z,27.80
2019-03-13T02:15:29.155Z,27.50
2019-03-13T02:17:59.585Z,34.77
2019-03-13T02:20:29.985Z,28.63
2019-03-13T02:23:00.395Z,27.67
2019-03-13T02:25:30.765Z,27.77
2019-03-13T02:28:01.133Z,25.43
2019-03-13T02:30:32.457Z,29.73
2019-03-13T02:33:02.881Z,37.50
2019-03-13T02:35:33.286Z,32.10
2019-03-13T02:38:03.686Z,32.63
2019-03-13T02:40:34.051Z,31.13
2019-03-13T02:43:04.417Z,34.77
2019-03-13T02:45:34.833Z,33.73
2019-03-13T02:48:05.264Z,35.13
2019-03-13T02:50:35.688Z,38.90
2019-03-13T02:53:06.080Z,31.60
2019-03-13T02:55:36.492Z,36.30
2019-03-13T02:58:06.889Z,38.33
2019-03-13T03:00:44.856Z,36.50
2019-03-13T03:03:19.916Z,35.43
2019-03-13T03:05:50.291Z,44.33
2019-03-13T03:08:20.669Z,39.57
2019-03-13T03:10:51.051Z,41.33
2019-03-13T03:13:21.445Z,38.03
2019-03-13T03:15:51.856Z,36.43
2019-03-13T03:18:22.244Z,39.57
2019-03-13T03:20:52.677Z,34.70
2019-03-13T03:23:23.048Z,39.90
2019-03-13T03:25:53.435Z,36.00
2019-03-13T03:28:23.793Z,36.20
2019-03-13T03:30:54.186Z,37.43
2019-03-13T03:33:24.622Z,30.07
2019-03-13T03:35:54.969Z,36.03
2019-03-13T03:38:25.340Z,29.40
2019-03-13T03:40:55.745Z,31.83
2019-03-13T03:43:39.335Z,38.67
2019-03-13T03:45:58.228Z,43.00
2019-03-13T03:48:28.643Z,43.93
2019-03-13T03:50:59.006Z,58.67
2019-03-13T03:53:29.398Z,72.60
2019-03-13T03:56:01.321Z,72.57
2019-03-13T03:58:31.692Z,77.93
2019-03-13T04:01:02.078Z,65.93
2019-03-13T04:03:32.483Z,55.87
2019-03-13T04:06:02.863Z,44.00
2019-03-13T04:08:37.415Z,48.20
2019-03-13T04:11:05.311Z,65.07
2019-03-13T04:13:35.697Z,54.57
2019-03-13T04:16:06.099Z,52.63
2019-03-13T04:18:36.443Z,61.20
2019-03-13T04:21:06.852Z,55.90
2019-03-13T04:23:37.114Z,41.50
2019-03-13T04:26:07.486Z,45.63
2019-03-13T04:28:37.829Z,46.40
2019-03-13T04:31:08.210Z,43.43
2019-03-13T04:33:38.598Z,35.90
2019-03-13T04:36:08.980Z,31.07
2019-03-13T04:38:39.340Z,31.20
2019-03-13T04:41:09.782Z,33.50
2019-03-13T04:43:40.148Z,30.47
2019-03-13T04:46:10.531Z,29.23
2019-03-13T04:48:40.871Z,29.10
2019-03-13T04:51:11.271Z,30.57
2019-03-13T04:53:41.631Z,30.97
2019-03-13T04:56:11.985Z,33.20
2019-03-13T04:58:42.330Z,31.30
2019-03-13T05:01:12.717Z,27.13
2019-03-13T05:03:43.103Z,28.60
2019-03-13T05:06:16.635Z,29.40
2019-03-13T05:08:47.324Z,27.57
2019-03-13T05:11:17.698Z,30.00
2019-03-13T05:13:48.070Z,22.83
2019-03-13T05:16:18.437Z,21.60
2019-03-13T05:18:48.809Z,22.30
2019-03-13T05:21:19.178Z,21.47
2019-03-13T05:23:49.562Z,32.77
2019-03-13T05:26:19.912Z,35.77
2019-03-13T05:28:50.299Z,37.53
2019-03-13T05:31:20.655Z,37.57
2019-03-13T05:33:51.010Z,36.27
2019-03-13T05:36:21.390Z,28.53
2019-03-13T05:38:51.748Z,20.93
2019-03-13T05:41:22.150Z,23.27
2019-03-13T05:43:52.534Z,25.07
2019-03-13T05:46:22.914Z,31.67
2019-03-13T05:48:53.294Z,25.30
2019-03-13T05:51:25.303Z,23.30
2019-03-13T05:53:55.670Z,17.30
2019-03-13T05:56:26.040Z,17.87
2019-03-13T05:58:56.443Z,17.97
2019-03-13T06:01:26.859Z,24.73
2019-03-13T06:03:57.240Z,21.53
2019-03-13T06:06:27.644Z,16.60
2019-03-13T06:08:58.045Z,20.47
2019-03-13T06:11:28.398Z,18.97
2019-03-13T06:13:58.779Z,19.47
2019-03-13T06:16:29.186Z,21.80
2019-03-13T06:18:59.585Z,26.97
2019-03-13T06:21:29.978Z,19.30
2019-03-13T06:24:00.369Z,19.53
2019-03-13T06:26:32.455Z,19.57
2019-03-13T06:29:04.428Z,22.73
2019-03-13T06:31:34.785Z,14.80
2019-03-13T06:34:05.184Z,28.70
2019-03-13T06:36:35.572Z,24.50
2019-03-13T06:39:07.239Z,17.77
2019-03-13T06:41:37.636Z,20.77
2019-03-13T06:44:08.044Z,19.87
2019-03-13T06:46:38.438Z,15.33
2019-03-13T06:49:08.827Z,16.20
2019-03-13T06:51:39.211Z,16.03
2019-03-13T06:54:09.556Z,26.53
2019-03-13T06:56:39.972Z,17.67
2019-03-13T06:59:13.551Z,17.43
2019-03-13T07:02:01.927Z,21.13
2019-03-13T07:04:49.946Z,18.70
2019-03-13T07:07:36.716Z,18.17
2019-03-13T07:10:10.679Z,15.77
2019-03-13T07:12:45.803Z,21.10
2019-03-13T07:15:17.811Z,15.00
2019-03-13T07:17:49.772Z,18.70
2019-03-13T07:20:21.840Z,23.53
2019-03-13T07:22:53.775Z,19.83
2019-03-13T07:25:25.768Z,16.50
2019-03-13T07:28:12.902Z,15.10
2019-03-13T07:30:51.757Z,15.60
2019-03-13T07:33:23.720Z,19.13
2019-03-13T07:35:58.518Z,16.67
2019-03-13T07:38:46.395Z,18.93
2019-03-13T07:41:18.376Z,17.50
2019-03-13T07:43:56.028Z,15.90
2019-03-13T07:46:27.974Z,12.60
2019-03-13T07:49:02.931Z,22.40
2019-03-13T07:51:46.638Z,13.90
2019-03-13T07:54:24.311Z,13.87
2019-03-13T07:57:14.117Z,16.00
2019-03-13T07:59:48.766Z,17.33
2019-03-13T08:02:36.696Z,8.93
2019-03-13T08:05:27.698Z,11.43
2019-03-13T08:08:05.362Z,9.53
2019-03-13T08:10:45.862Z,11.00
2019-03-13T08:13:20.514Z,8.70
2019-03-13T08:15:52.377Z,15.07
2019-03-13T08:18:27.276Z,11.83
2019-03-13T08:20:59.236Z,17.40
2019-03-13T08:23:46.097Z,11.10
2019-03-13T08:26:17.998Z,9.57
2019-03-13T08:28:55.596Z,13.57
2019-03-13T08:31:31.527Z,11.60
2019-03-13T08:34:15.312Z,19.53
2019-03-13T08:37:05.648Z,9.23
2019-03-13T08:39:37.472Z,9.57
2019-03-13T08:42:21.393Z,10.03
2019-03-13T08:45:05.206Z,10.67
2019-03-13T08:47:55.359Z,9.27
2019-03-13T08:50:30.160Z,7.97
2019-03-13T08:53:02.026Z,6.70
2019-03-13T08:55:36.884Z,9.80
2019-03-13T08:58:11.498Z,7.80
2019-03-13T09:00:43.352Z,8.67
2019-03-13T09:03:15.897Z,7.77
2019-03-13T09:05:59.304Z,7.40
2019-03-13T09:08:49.389Z,5.67
2019-03-13T09:11:24.216Z,6.70
2019-03-13T09:13:56.049Z,7.37
2019-03-13T09:16:33.604Z,8.47
2019-03-13T09:19:11.539Z,11.07
2019-03-13T09:21:59.867Z,7.37
2019-03-13T09:24:34.665Z,9.17
2019-03-13T09:27:06.501Z,6.13
2019-03-13T09:29:38.561Z,5.57
2019-03-13T09:32:25.671Z,4.90
2019-03-13T09:35:03.309Z,8.73
2019-03-13T09:37:41.186Z,8.33
2019-03-13T09:40:28.367Z,6.60
2019-03-13T09:43:00.233Z,7.87
2019-03-13T09:45:32.118Z,11.33
2019-03-13T09:48:04.055Z,9.27
2019-03-13T09:50:36.059Z,8.63
2019-03-13T09:53:07.899Z,6.10
2019-03-13T09:55:45.421Z,6.50
2019-03-13T09:58:23.046Z,6.30
2019-03-13T10:00:57.651Z,17.73
2019-03-13T10:03:29.593Z,13.03
2019-03-13T10:06:01.586Z,20.90
2019-03-13T10:08:51.408Z,23.20
2019-03-13T10:11:41.489Z,16.10
2019-03-13T10:14:13.467Z,27.87
2019-03-13T10:16:54.396Z,24.27
2019-03-13T10:19:43.340Z,9.03
2019-03-13T10:22:31.648Z,11.03
2019-03-13T10:25:12.703Z,7.43
2019-03-13T10:27:47.555Z,7.80
2019-03-13T10:30:19.411Z,7.17
2019-03-13T10:33:07.374Z,10.97
2019-03-13T10:35:51.603Z,7.53
2019-03-13T10:38:23.440Z,13.80
2019-03-13T10:40:55.379Z,6.73
2019-03-13T10:43:45.435Z,5.50
2019-03-13T10:46:18.308Z,5.37
2019-03-13T10:48:58.025Z,16.97
2019-03-13T10:51:32.612Z,6.57
2019-03-13T10:54:04.469Z,8.07
2019-03-13T10:56:36.344Z,6.37
2019-03-13T10:59:08.329Z,11.77
2019-03-13T11:01:43.212Z,13.43
2019-03-13T11:04:18.090Z,10.57
2019-03-13T11:06:58.914Z,10.80
2019-03-13T11:09:37.800Z,8.67
2019-03-13T11:12:09.644Z,9.87
2019-03-13T11:14:59.562Z,12.83
2019-03-13T11:17:43.712Z,13.80
2019-03-13T11:20:15.509Z,10.30
2019-03-13T11:22:47.473Z,7.40
2019-03-13T11:25:19.324Z,9.47
2019-03-13T11:28:03.107Z,11.33
2019-03-13T11:30:38.091Z,6.57
2019-03-13T11:33:09.927Z,6.20
2019-03-13T11:35:56.743Z,9.57
2019-03-13T11:38:28.561Z,9.90
2019-03-13T11:41:00.512Z,10.90
2019-03-13T11:43:32.433Z,15.67
2019-03-13T11:46:19.327Z,20.77
2019-03-13T11:49:02.579Z,10.33
2019-03-13T11:51:40.577Z,15.23
2019-03-13T11:54:28.816Z,14.27
2019-03-13T11:57:10.332Z,10.03
2019-03-13T11:59:43.297Z,6.77
2019-03-13T12:02:31.123Z,9.33
2019-03-13T12:05:10.500Z,9.83
2019-03-13T12:07:48.441Z,8.07
2019-03-13T12:10:35.058Z,8.80
2019-03-13T12:13:13.013Z,6.77
2019-03-13T12:15:55.074Z,11.10
2019-03-13T12:18:43.196Z,6.43
2019-03-13T12:21:31.368Z,16.10
2019-03-13T12:24:09.291Z,6.47
2019-03-13T12:26:57.501Z,6.93
2019-03-13T12:29:32.308Z,5.33
2019-03-13T12:32:10.166Z,7.63
2019-03-13T12:34:51.033Z,7.27
2019-03-13T12:37:22.875Z,14.47
2019-03-13T12:40:13.090Z,5.93
2019-03-13T12:43:01.402Z,12.30
2019-03-13T12:45:37.900Z,7.10
2019-03-13T12:48:16.901Z,9.97
2019-03-13T12:50:49.012Z,8.27
2019-03-13T12:53:33.319Z,11.23
2019-03-13T12:56:08.024Z,9.10
2019-03-13T12:58:42.547Z,8.87
2019-03-13T13:01:17.355Z,13.40
2019-03-13T13:03:55.054Z,16.57
2019-03-13T13:06:30.000Z,13.90
2019-03-13T13:09:13.916Z,21.57
2019-03-13T13:11:52.015Z,13.80
2019-03-13T13:14:38.811Z,11.17
2019-03-13T13:17:29.160Z,8.30
2019-03-13T13:19:59.494Z,5.77
2019-03-13T13:22:29.768Z,10.47
2019-03-13T13:25:00.416Z,13.97
2019-03-13T13:27:30.913Z,14.17
2019-03-13T13:30:01.372Z,12.20
2019-03-13T13:32:31.743Z,9.67
2019-03-13T13:35:02.024Z,8.00
2019-03-13T13:37:32.318Z,10.30
2019-03-13T13:40:02.705Z,10.93
2019-03-13T13:42:33.239Z,7.90
2019-03-13T13:45:05.102Z,13.30
2019-03-13T13:47:36.270Z,12.43
2019-03-13T13:50:10.972Z,9.50
2019-03-13T13:52:43.784Z,14.73
2019-03-13T13:55:14.241Z,15.90
2019-03-13T13:57:46.081Z,22.93
2019-03-13T14:00:16.539Z,19.43
2019-03-13T14:02:46.934Z,17.43
2019-03-13T14:05:17.329Z,13.03
2019-03-13T14:07:47.724Z,8.30
2019-03-13T14:10:18.045Z,9.40
2019-03-13T14:12:48.395Z,9.33
2019-03-13T14:15:18.707Z,7.67
2019-03-13T14:17:49.002Z,10.73
2019-03-13T14:20:19.402Z,10.53
2019-03-13T14:22:49.814Z,12.17
2019-03-13T14:25:20.184Z,15.43
2019-03-13T14:27:51.571Z,16.40
2019-03-13T14:30:23.162Z,10.90
2019-03-13T14:32:53.617Z,17.40
2019-03-13T14:35:24.079Z,18.17
2019-03-13T14:37:54.470Z,20.63
2019-03-13T14:40:26.158Z,10.10
2019-03-13T14:42:56.545Z,11.13
2019-03-13T14:45:26.933Z,9.07
2019-03-13T14:47:59.223Z,13.23
2019-03-13T14:50:31.247Z,15.20
2019-03-13T14:53:04.372Z,11.20
2019-03-13T14:55:36.329Z,14.43
2019-03-13T14:58:11.863Z,12.17
2019-03-13T15:00:49.355Z,15.63
2019-03-13T15:03:19.787Z,10.27
2019-03-13T15:05:52.219Z,9.17
2019-03-13T15:08:24.070Z,7.60
2019-03-13T15:10:55.621Z,8.67
2019-03-13T15:13:33.633Z,14.20
2019-03-13T15:16:05.699Z,9.87
2019-03-13T15:18:37.621Z,21.50
2019-03-13T15:21:08.013Z,13.20
2019-03-13T15:23:40.478Z,10.63
2019-03-13T15:26:14.033Z,17.93
2019-03-13T15:28:47.263Z,10.40
2019-03-13T15:31:19.812Z,14.30
2019-03-13T15:33:52.655Z,20.73
2019-03-13T15:36:25.505Z,18.37
2019-03-13T15:38:59.032Z,15.93
2019-03-13T15:41:30.234Z,24.67
2019-03-13T15:44:04.764Z,19.43
2019-03-13T15:46:39.039Z,17.57
2019-03-13T15:49:09.460Z,20.30
2019-03-13T15:51:42.431Z,16.43
2019-03-13T15:54:14.513Z,20.47
2019-03-13T15:56:46.478Z,21.77
2019-03-13T15:59:20.555Z,27.10
2019-03-13T16:01:54.838Z,30.63
2019-03-13T16:04:26.801Z,33.50
2019-03-13T16:06:59.929Z,26.93
2019-03-13T16:09:30.787Z,26.27
2019-03-13T16:12:08.447Z,23.33
2019-03-13T16:14:38.986Z,22.03
2019-03-13T16:17:11.665Z,24.60
2019-03-13T16:19:43.593Z,22.87
2019-03-13T16:22:17.057Z,20.13
2019-03-13T16:24:47.575Z,31.30
2019-03-13T16:27:17.989Z,22.97
2019-03-13T16:29:48.998Z,19.30
2019-03-13T16:32:28.366Z,18.57
2019-03-13T16:35:00.554Z,19.73
2019-03-13T16:37:30.981Z,26.00
2019-03-13T16:40:04.944Z,24.83
2019-03-13T16:42:39.074Z,29.43
2019-03-13T16:45:13.812Z,33.37
2019-03-13T16:47:46.298Z,24.67
2019-03-13T16:50:21.322Z,27.50
2019-03-13T16:52:52.553Z,30.00
2019-03-13T16:55:23.749Z,25.70
2019-03-13T16:58:00.145Z,25.50
2019-03-13T17:00:35.240Z,27.20
2019-03-13T17:03:06.755Z,26.27
2019-03-13T17:05:40.167Z,31.60
2019-03-13T17:08:12.140Z,28.50
2019-03-13T17:10:46.112Z,22.90
2019-03-13T17:13:16.871Z,28.60
2019-03-13T17:15:51.214Z,24.57
2019-03-13T17:18:31.254Z,29.60
2019-03-13T17:21:01.739Z,22.77
2019-03-13T17:23:32.146Z,24.77
2019-03-13T17:26:06.255Z,23.73
2019-03-13T17:28:37.636Z,21.13
2019-03-13T17:31:08.404Z,22.30
2019-03-13T17:33:41.029Z,23.57
2019-03-13T17:36:11.484Z,20.43
2019-03-13T17:38:44.761Z,23.23
2019-03-13T17:41:17.622Z,21.77
2019-03-13T17:43:51.185Z,20.43
2019-03-13T17:46:22.442Z,21.70
2019-03-13T17:48:56.446Z,22.27
2019-03-13T17:51:26.851Z,20.50
2019-03-13T17:54:05.017Z,20.57
2019-03-13T17:56:38.755Z,23.17
2019-03-13T17:59:12.195Z,21.50
2019-03-13T18:01:44.754Z,22.10
2019-03-13T18:04:18.049Z,26.47
2019-03-13T18:06:48.474Z,26.10
2019-03-13T18:09:21.525Z,23.90
2019-03-13T18:11:57.951Z,29.67
2019-03-13T18:14:31.990Z,25.03
2019-03-13T18:17:03.333Z,29.97
2019-03-13T18:19:38.695Z,30.97
2019-03-13T18:22:12.200Z,38.33
2019-03-13T18:24:44.354Z,38.10
2019-03-13T18:27:14.723Z,34.67
2019-03-13T18:29:47.433Z,35.37
2019-03-13T18:32:23.877Z,40.40
2019-03-13T18:34:55.840Z,31.43
2019-03-13T18:37:26.243Z,36.17
2019-03-13T18:39:58.256Z,38.43
2019-03-13T18:42:28.738Z,36.53
2019-03-13T18:45:02.710Z,33.83
2019-03-13T18:47:33.631Z,32.47
2019-03-13T18:50:08.361Z,30.97
2019-03-13T18:52:41.916Z,31.30
2019-03-13T18:55:24.349Z,38.43
2019-03-13T18:57:57.668Z,29.63
2019-03-13T19:00:35.150Z,33.13
2019-03-13T19:03:09.831Z,31.83
2019-03-13T19:05:43.333Z,32.23
2019-03-13T19:08:18.713Z,24.30
2019-03-13T19:10:50.778Z,28.53
2019-03-13T19:13:21.470Z,21.67
2019-03-13T19:15:54.813Z,31.07
2019-03-13T19:18:28.311Z,34.10
2019-03-13T19:21:05.488Z,27.50
2019-03-13T19:23:37.321Z,35.77
2019-03-13T19:26:19.249Z,30.37
2019-03-13T19:28:56.304Z,22.37
2019-03-13T19:31:27.960Z,33.70
2019-03-13T19:34:00.167Z,30.17
2019-03-13T19:36:30.606Z,31.67
2019-03-13T19:39:04.806Z,28.17
2019-03-13T19:41:39.066Z,40.27
2019-03-13T19:44:11.131Z,38.03
2019-03-13T19:46:42.169Z,30.60
2019-03-13T19:49:15.754Z,36.67
2019-03-13T19:51:54.174Z,38.73
2019-03-13T19:54:28.730Z,26.93
2019-03-13T19:57:00.822Z,23.27
2019-03-13T19:59:36.855Z,20.03
2019-03-13T20:02:08.772Z,25.13
2019-03-13T20:04:47.564Z,20.43
2019-03-13T20:07:19.511Z,21.63
2019-03-13T20:09:50.189Z,16.70
2019-03-13T20:12:25.736Z,15.80
2019-03-13T20:15:02.339Z,16.67
2019-03-13T20:17:41.664Z,21.73
2019-03-13T20:20:22.942Z,20.70
2019-03-13T20:23:10.440Z,17.60
2019-03-13T20:25:41.866Z,19.57
2019-03-13T20:28:14.067Z,23.07
2019-03-13T20:30:47.485Z,27.77
2019-03-13T20:33:22.326Z,40.33
2019-03-13T20:35:53.182Z,38.53
2019-03-13T20:38:25.873Z,41.63
2019-03-13T20:40:57.309Z,53.07
2019-03-13T20:43:27.747Z,45.83
2019-03-13T20:45:58.196Z,48.20
2019-03-13T20:48:30.295Z,49.67
2019-03-13T20:51:00.795Z,44.47
2019-03-13T20:53:31.189Z,50.03
2019-03-13T20:56:02.589Z,42.40
2019-03-13T20:58:33.045Z,35.67
2019-03-13T21:01:04.237Z,40.60
2019-03-13T21:03:36.165Z,32.47
2019-03-13T21:06:06.653Z,31.30
2019-03-13T21:08:38.608Z,29.93
2019-03-13T21:11:12.674Z,28.57
2019-03-13T21:13:43.065Z,33.60
2019-03-13T21:16:13.559Z,29.60
2019-03-13T21:18:47.070Z,26.30
2019-03-13T21:21:21.833Z,30.83
2019-03-13T21:23:53.855Z,25.50
2019-03-13T21:26:25.814Z,28.40
2019-03-13T21:28:57.761Z,30.03
2019-03-13T21:31:31.397Z,21.70
2019-03-13T21:34:01.786Z,19.20
2019-03-13T21:36:34.462Z,20.47
2019-03-13T21:39:05.664Z,19.10
2019-03-13T21:41:38.697Z,20.60
2019-03-13T21:44:09.088Z,17.63
2019-03-13T21:46:39.472Z,18.93
2019-03-13T21:49:11.421Z,17.40
2019-03-13T21:51:42.092Z,17.03
2019-03-13T21:54:12.500Z,18.50
2019-03-13T21:56:46.028Z,19.40
2019-03-13T21:59:18.687Z,14.20
2019-03-13T22:01:53.248Z,17.37
2019-03-13T22:04:25.963Z,16.60
2019-03-13T22:07:01.975Z,14.57
2019-03-13T22:09:32.376Z,18.90
2019-03-13T22:12:05.885Z,22.97
2019-03-13T22:14:38.601Z,21.17
2019-03-13T22:17:10.061Z,21.03
2019-03-13T22:19:40.610Z,19.47
2019-03-13T22:22:15.034Z,29.40
2019-03-13T22:24:46.476Z,43.63
2019-03-13T22:27:22.983Z,37.70
2019-03-13T22:30:08.593Z,38.10
2019-03-13T22:32:38.984Z,33.07
2019-03-13T22:35:11.664Z,37.07
2019-03-13T22:37:42.092Z,34.77
2019-03-13T22:40:26.986Z,41.67
2019-03-13T22:42:57.379Z,39.47
2019-03-13T22:45:27.912Z,33.13
2019-03-13T22:50:46.142Z,36.50
2019-03-13T22:53:19.262Z,38.10
2019-03-13T22:55:51.728Z,40.57
2019-03-13T22:58:24.535Z,44.77
2019-03-13T23:00:57.797Z,50.30
2019-03-13T23:03:30.755Z,46.27
2019-03-13T23:06:01.222Z,58.80
2019-03-13T23:08:31.641Z,50.33
2019-03-13T23:11:03.641Z,47.83
2019-03-13T23:13:34.054Z,50.57
2019-03-13T23:16:04.500Z,48.73
2019-03-13T23:18:35.589Z,49.07
2019-03-13T23:21:05.989Z,57.43
2019-03-13T23:23:38.131Z,49.67
2019-03-13T23:26:08.733Z,46.20
2019-03-13T23:28:39.451Z,43.33
2019-03-13T23:31:09.835Z,43.23
2019-03-13T23:33:40.237Z,41.00
2019-03-13T23:36:15.042Z,43.23
2019-03-13T23:38:49.852Z,45.53
2019-03-13T23:41:22.522Z,47.63
2019-03-13T23:43:55.730Z,39.53
2019-03-13T23:46:28.982Z,34.80
2019-03-13T23:48:59.402Z,43.00
2019-03-13T23:51:33.241Z,39.70
2019-03-13T23:54:10.143Z,40.10
2019-03-13T23:56:40.594Z,39.43
2019-03-13T23:59:15.312Z,38.40
